Hovedside
METAR-TAF:

METAR-TAF

Lufthavner :

Moshoeshoe I internasjonale lufthavn

Maseru, Lesotho

breddegrad: 29-27S, lengdegrad: 027-33E, høyde over havet: 1631 m

Gjeldene værobservasjon

Denne rapporten ble laget for 14 timer og 33 minutter siden, klokken 13:00 UTC
Flau vind
Temperatur 18°C
Luftfuktighet 34%
Trykk 1029 hPa
Sikt 10 km eller mer
ingen skyer under 1500 m og ingen bygeskyer

METAR: FXMM 131300Z 00000KT CAVOK 18/02 Q1029 NOSIG

Tid: 05:33 (03:33 UTC)

Varsel

Denne rapporten ble laget for 23 timer og 33 minutter siden, klokken 04:00 UTC
Varsel gyldig fra 13. klokken 06 UTC til 14. klokken 06 UTC
Vind 4 kt fra Øst
Sikt 10 km eller mer
ingen skyer under 1500 m og ingen bygeskyer

TAF: FXMM 130400Z 1306/1406 08004KT CAVOK TX16/1313Z TN01/1403Z

Værobservasjoner og værvarsel for over 4000 flyplasser (METAR- og TAF-rapporter).

Tilgjengelige stasjoner er representert av de røde og gule prikkene på kartet.

Hold musepekeren over prikken for å se navnet på stasjonen.

Klikk så for å se værobservasjoner og -varsler.

For å forandre kartet kan du klikke på den grønne knappen med svart kryss for å zoome inn, på den grønne knappen med strek for å zoome ut, eller på de grønne pilene for å se tilstøtende kart.


METAR-TAF: